Flight Track Log - Related Links

Times and Time Zones

All times are in EDT time to prevent confusion due to time zone crossing. See the SKW7363 flight status page for this flight to view local times or setup timezone preferences in your user account.

Time Position Orientation Groundspeed Altitude Reporting Facility
EDT Latitude Longitude Course Direction KTS MPH feet Rate Location/Type
Sat 07:32:17 PM 44.5383 -108.9964 159° South 165 190 6,000  Level Salt Lake Center
Sat 07:33:18 PM 44.6006 -108.9725 15° North 211 243 8,000 1,902 Climbing Salt Lake Center
Sat 07:34:20 PM 44.6675 -108.9681 North 225 259 9,900 2,195 Climbing Salt Lake Center
Sat 07:35:00 PM 44.1749 -108.6975 158° South  Level FlightAware Approximate
Sat 07:35:21 PM 44.7050 -109.0342 309° West 236 272 12,500  Level Salt Lake Center
Sat 07:36:00 PM 44.0836 -108.6470 159° South  Level FlightAware Approximate
Sat 07:36:23 PM 44.6503 -109.0400 184° South 260 299 13,900  Level Salt Lake Center
Sat 07:37:00 PM 43.9921 -108.5972 159° South  Level FlightAware Approximate
Sat 07:37:25 PM 44.5981 -108.9533 130° Southeast 287 330 15,300  Level Salt Lake Center
Sat 07:38:26 PM 44.5175 -108.9081 158° South 307 353 16,900 1,317 Climbing Salt Lake Center
Sat 07:39:28 PM 44.4328 -108.8564 156° South 325 374 18,000 1,415 Climbing Salt Lake Center
Sat 07:40:29 PM 44.3256 -108.7942 157° South 343 395 19,800 1,366 Climbing Salt Lake Center
Sat 07:41:31 PM 44.2347 -108.7425 158° South 351 404 20,800 976 Climbing Salt Lake Center
Sat 07:42:32 PM 44.1411 -108.6894 158° South 358 412 21,800 1,073 Climbing Salt Lake Center
Sat 07:43:34 PM 44.0444 -108.6331 157° South 371 427 23,000 1,065 Climbing Salt Lake Center
Sat 07:44:36 PM 43.9472 -108.5769 157° South 378 435 24,000 927 Climbing Salt Lake Center
Sat 07:45:37 PM 43.8489 -108.5208 158° South 383 441 24,900 878 Climbing Salt Lake Center
Sat 07:46:39 PM 43.7494 -108.4644 158° South 386 444 25,800 878 Climbing Salt Lake Center
Sat 07:47:40 PM 43.6272 -108.3947 158° South 395 455 26,700 780 Climbing Salt Lake Center
Sat 07:48:42 PM 43.5247 -108.3389 158° South 396 456 27,400 585 Climbing Salt Lake Center
Sat 07:49:43 PM 43.4281 -108.3839 199° South 383 441 27,900 732 Climbing Salt Lake Center
Sat 07:50:45 PM 43.3744 -108.5119 240° Southwest 388 447 28,900 726 Climbing Salt Lake Center
Sat 07:51:47 PM 43.3208 -108.6353 239° Southwest 380 437 29,400 537 Climbing Salt Lake Center
Sat 07:52:48 PM 43.2667 -108.7617 240° Southwest 384 442 30,000 293 Climbing Salt Lake Center
Sat 07:53:50 PM 43.2131 -108.8856 239° Southwest 380 437 30,000  Level Salt Lake Center
Sat 07:54:51 PM 43.1592 -109.0111 240° Southwest 380 437 30,000  Level Salt Lake Center
Sat 07:55:53 PM 43.0950 -109.1594 239° Southwest 378 435 30,000  Level Salt Lake Center
Sat 07:56:54 PM 43.0425 -109.2819 240° Southwest 376 433 30,000  Level Salt Lake Center
Sat 07:57:56 PM 42.9878 -109.4028 238° Southwest 374 430 30,000  Level Salt Lake Center
Sat 07:58:57 PM 42.9386 -109.5169 240° Southwest 375 432 30,000  Level Salt Lake Center
Sat 07:59:59 PM 42.8781 -109.6556 239° Southwest 379 436 30,000  Level Salt Lake Center
Sat 08:01:00 PM 42.8253 -109.7728 238° Southwest 380 437 30,000  Level Salt Lake Center
Sat 08:02:01 PM 42.7633 -109.9094 238° Southwest 381 438 30,000  Level Salt Lake Center
Sat 08:03:03 PM 42.7106 -110.0289 239° Southwest 383 441 30,000  Level Salt Lake Center
Sat 08:04:04 PM 42.6500 -110.1650 239° Southwest 382 440 30,000  Level Salt Lake Center
Sat 08:05:06 PM 42.5956 -110.2842 238° Southwest 386 444 30,000  Level Salt Lake Center
Sat 08:06:07 PM 42.5414 -110.4050 239° Southwest 393 452 30,000  Level Salt Lake Center
Sat 08:07:09 PM 42.4769 -110.5469 238° Southwest 395 455 30,000  Level Salt Lake Center
Sat 08:08:10 PM 42.4222 -110.6647 238° Southwest 390 449 30,000  Level Salt Lake Center
Sat 08:09:11 PM 42.3586 -110.8036 238° Southwest 389 448 30,000  Level Salt Lake Center
Sat 08:10:13 PM 42.3053 -110.9206 238° Southwest 385 443 30,000  Level Salt Lake Center
Sat 08:11:14 PM 42.2453 -111.0497 238° Southwest 390 449 30,000  Level Salt Lake Center
Sat 08:12:16 PM 42.1886 -111.1717 238° Southwest 387 445 30,000  Level Salt Lake Center
Sat 08:13:17 PM 42.1325 -111.2917 238° Southwest 383 441 30,000  Level Salt Lake Center
Sat 08:14:19 PM 42.0753 -111.4125 237° Southwest 383 441 30,000 -683 Level Salt Lake Center
Sat 08:15:20 PM 42.0186 -111.5325 238° Southwest 383 441 28,600 -1,869 Descending Salt Lake Center
Sat 08:16:21 PM 41.9544 -111.6678 238° Southwest 362 417 26,200 -2,244 Descending Salt Lake Center
Sat 08:17:23 PM 41.9042 -111.7742 238° Southwest 343 395 24,000 -2,146 Descending Salt Lake Center
Sat 08:18:24 PM 41.8533 -111.8792 237° Southwest 341 392 21,800 -2,049 Descending Salt Lake Center
Sat 08:19:26 PM 41.8042 -111.9842 238° Southwest 335 386 19,800 -1,902 Descending Salt Lake Center
Sat 08:20:27 PM 41.7197 -112.0258 200° South 331 381 17,900 -1,854 Descending Salt Lake Center
Sat 08:21:29 PM 41.6261 -112.0367 185° South 338 389 16,000 -1,415 Descending Salt Lake Center
Sat 08:22:30 PM 41.5253 -112.0444 183° South 325 374 15,000 -878 Descending Salt Lake Center
Sat 08:23:32 PM 41.4494 -112.0536 185° South 317 365 14,200 -1,268 Descending Salt Lake Center
Sat 08:24:33 PM 41.3450 -112.0394 174° South 314 361 12,400 -1,415 Descending Salt Lake Center
Sat 08:25:35 PM 41.2628 -112.0286 174° South 300 345 11,300 -1,316 Descending Salt Lake Center
Sat 08:26:27 PM 41.1911 -112.0189 174° South 298 343 9,900 -1,053 Descending Salt Lake Center
Sat 08:27:46 PM 41.0839 -112.0097 176° South 291 335 9,000 -682 Descending Salt Lake Center
Sat 08:28:39 PM 41.0267 -112.0025 175° South 275 316 8,400 -1,148 Descending Salt Lake Center
Sat 08:29:41 PM 40.9436 -111.9933 175° South 253 291 6,800 -1,268 Descending Salt Lake Center
Sat 08:30:42 PM 40.8883 -111.9869 175° South 199 229 5,800 -885 Descending Salt Lake Center
Sat 08:31:43 PM 40.8519 -112.0006 196° South 144 166 5,000 -634 Descending Salt Lake Center
Sat 08:32:45 PM 40.8164 -111.9997 179° South 130 150 4,500 -484 Descending Salt Lake Center

Login

Don't have an account? Register now (free) for customized features, flight alerts, and more!